sensor_id;sensor_type;location;lat;lon;timestamp;P1;durP1;ratioP1;P2;durP2;ratioP2
39066;SDS011;24821;51.988;6.020;2022-12-18T00:01:42;16.87;;;11.37;;
39066;SDS011;24821;51.988;6.020;2022-12-18T00:04:14;13.77;;;10.73;;
39066;SDS011;24821;51.988;6.020;2022-12-18T00:06:45;11.60;;;10.07;;
39066;SDS011;24821;51.988;6.020;2022-12-18T00:09:11;13.47;;;11.93;;
39066;SDS011;24821;51.988;6.020;2022-12-18T00:11:36;14.37;;;11.10;;
39066;SDS011;24821;51.988;6.020;2022-12-18T00:14:02;16.63;;;10.57;;
39066;SDS011;24821;51.988;6.020;2022-12-18T00:16:28;15.13;;;8.63;;
39066;SDS011;24821;51.988;6.020;2022-12-18T00:18:58;18.80;;;12.37;;
39066;SDS011;24821;51.988;6.020;2022-12-18T00:21:25;28.63;;;11.10;;
39066;SDS011;24821;51.988;6.020;2022-12-18T00:23:51;13.77;;;10.83;;
39066;SDS011;24821;51.988;6.020;2022-12-18T00:26:18;8.73;;;7.73;;
39066;SDS011;24821;51.988;6.020;2022-12-18T00:28:45;18.87;;;13.77;;
39066;SDS011;24821;51.988;6.020;2022-12-18T00:31:13;28.63;;;12.50;;
39066;SDS011;24821;51.988;6.020;2022-12-18T00:33:43;11.77;;;9.63;;
39066;SDS011;24821;51.988;6.020;2022-12-18T00:38:58;9.83;;;8.83;;
39066;SDS011;24821;51.988;6.020;2022-12-18T00:41:25;12.30;;;11.10;;
39066;SDS011;24821;51.988;6.020;2022-12-18T00:44:10;11.88;;;10.63;;
39066;SDS011;24821;51.988;6.020;2022-12-18T00:46:37;12.87;;;10.17;;
39066;SDS011;24821;51.988;6.020;2022-12-18T00:49:03;16.93;;;12.63;;
39066;SDS011;24821;51.988;6.020;2022-12-18T00:51:29;14.63;;;12.57;;
39066;SDS011;24821;51.988;6.020;2022-12-18T00:53:54;14.60;;;10.97;;
39066;SDS011;24821;51.988;6.020;2022-12-18T00:56:23;11.10;;;10.07;;
39066;SDS011;24821;51.988;6.020;2022-12-18T00:58:49;11.37;;;9.70;;
39066;SDS011;24821;51.988;6.020;2022-12-18T01:01:15;11.30;;;10.20;;
39066;SDS011;24821;51.988;6.020;2022-12-18T01:03:41;14.53;;;12.77;;
39066;SDS011;24821;51.988;6.020;2022-12-18T01:06:07;23.23;;;8.73;;
39066;SDS011;24821;51.988;6.020;2022-12-18T01:08:34;11.40;;;10.23;;
39066;SDS011;24821;51.988;6.020;2022-12-18T01:11:00;10.57;;;9.13;;
39066;SDS011;24821;51.988;6.020;2022-12-18T01:13:31;11.87;;;8.77;;
39066;SDS011;24821;51.988;6.020;2022-12-18T01:15:57;16.10;;;10.10;;
39066;SDS011;24821;51.988;6.020;2022-12-18T01:18:22;10.67;;;9.07;;
39066;SDS011;24821;51.988;6.020;2022-12-18T01:20:48;19.47;;;11.80;;
39066;SDS011;24821;51.988;6.020;2022-12-18T01:23:13;11.70;;;10.50;;
39066;SDS011;24821;51.988;6.020;2022-12-18T01:25:39;13.87;;;11.13;;
39066;SDS011;24821;51.988;6.020;2022-12-18T01:28:04;20.37;;;10.20;;
39066;SDS011;24821;51.988;6.020;2022-12-18T01:30:30;21.00;;;12.07;;
39066;SDS011;24821;51.988;6.020;2022-12-18T01:32:55;15.37;;;12.67;;
39066;SDS011;24821;51.988;6.020;2022-12-18T01:35:21;11.57;;;10.37;;
39066;SDS011;24821;51.988;6.020;2022-12-18T01:37:47;14.93;;;11.93;;
39066;SDS011;24821;51.988;6.020;2022-12-18T01:40:12;12.30;;;8.90;;
39066;SDS011;24821;51.988;6.020;2022-12-18T01:42:38;14.07;;;12.63;;
39066;SDS011;24821;51.988;6.020;2022-12-18T01:45:05;9.63;;;8.70;;
39066;SDS011;24821;51.988;6.020;2022-12-18T01:47:53;11.73;;;9.20;;
39066;SDS011;24821;51.988;6.020;2022-12-18T01:50:40;11.27;;;9.97;;
39066;SDS011;24821;51.988;6.020;2022-12-18T01:53:10;9.67;;;8.67;;
39066;SDS011;24821;51.988;6.020;2022-12-18T01:55:48;11.37;;;9.40;;
39066;SDS011;24821;51.988;6.020;2022-12-18T01:58:18;7.67;;;6.87;;
39066;SDS011;24821;51.988;6.020;2022-12-18T02:00:47;11.93;;;10.73;;
39066;SDS011;24821;51.988;6.020;2022-12-18T02:03:13;12.03;;;9.47;;
39066;SDS011;24821;51.988;6.020;2022-12-18T02:08:33;12.63;;;8.80;;
39066;SDS011;24821;51.988;6.020;2022-12-18T02:14:03;22.45;;;9.88;;
39066;SDS011;24821;51.988;6.020;2022-12-18T02:16:44;8.77;;;7.97;;
39066;SDS011;24821;51.988;6.020;2022-12-18T02:22:23;15.53;;;10.77;;
39066;SDS011;24821;51.988;6.020;2022-12-18T02:25:01;11.90;;;9.67;;
39066;SDS011;24821;51.988;6.020;2022-12-18T02:27:37;10.70;;;9.63;;
39066;SDS011;24821;51.988;6.020;2022-12-18T02:30:05;9.13;;;8.20;;
39066;SDS011;24821;51.988;6.020;2022-12-18T02:32:34;9.30;;;8.33;;
39066;SDS011;24821;51.988;6.020;2022-12-18T02:35:05;17.67;;;10.90;;
39066;SDS011;24821;51.988;6.020;2022-12-18T02:37:34;12.60;;;11.10;;
39066;SDS011;24821;51.988;6.020;2022-12-18T02:40:01;9.93;;;8.90;;
39066;SDS011;24821;51.988;6.020;2022-12-18T02:42:28;10.53;;;7.80;;
39066;SDS011;24821;51.988;6.020;2022-12-18T02:44:54;11.33;;;7.20;;
39066;SDS011;24821;51.988;6.020;2022-12-18T02:47:20;11.23;;;8.20;;
39066;SDS011;24821;51.988;6.020;2022-12-18T02:57:55;11.23;;;9.43;;
39066;SDS011;24821;51.988;6.020;2022-12-18T03:00:40;9.37;;;8.57;;
39066;SDS011;24821;51.988;6.020;2022-12-18T03:05:40;8.67;;;6.87;;
39066;SDS011;24821;51.988;6.020;2022-12-18T03:08:20;10.27;;;8.93;;
39066;SDS011;24821;51.988;6.020;2022-12-18T03:11:08;9.27;;;7.63;;
39066;SDS011;24821;51.988;6.020;2022-12-18T03:13:37;10.47;;;8.40;;
39066;SDS011;24821;51.988;6.020;2022-12-18T03:16:09;9.37;;;7.77;;
39066;SDS011;24821;51.988;6.020;2022-12-18T03:18:42;11.93;;;9.53;;
39066;SDS011;24821;51.988;6.020;2022-12-18T03:21:12;23.00;;;8.27;;
39066;SDS011;24821;51.988;6.020;2022-12-18T03:23:40;9.20;;;7.40;;
39066;SDS011;24821;51.988;6.020;2022-12-18T03:26:12;7.03;;;6.37;;
39066;SDS011;24821;51.988;6.020;2022-12-18T03:28:43;6.97;;;5.73;;
39066;SDS011;24821;51.988;6.020;2022-12-18T03:31:12;6.67;;;6.07;;
39066;SDS011;24821;51.988;6.020;2022-12-18T03:36:25;10.77;;;6.10;;
39066;SDS011;24821;51.988;6.020;2022-12-18T03:38:52;7.57;;;6.87;;
39066;SDS011;24821;51.988;6.020;2022-12-18T03:46:40;7.77;;;4.50;;
39066;SDS011;24821;51.988;6.020;2022-12-18T03:49:19;6.57;;;5.93;;
39066;SDS011;24821;51.988;6.020;2022-12-18T03:51:57;7.70;;;5.67;;
39066;SDS011;24821;51.988;6.020;2022-12-18T03:54:25;14.05;;;9.35;;
39066;SDS011;24821;51.988;6.020;2022-12-18T03:56:58;6.93;;;6.27;;
39066;SDS011;24821;51.988;6.020;2022-12-18T03:59:31;6.30;;;5.60;;
39066;SDS011;24821;51.988;6.020;2022-12-18T04:01:59;6.60;;;6.00;;
39066;SDS011;24821;51.988;6.020;2022-12-18T04:04:26;5.37;;;4.67;;
39066;SDS011;24821;51.988;6.020;2022-12-18T04:06:53;7.37;;;6.67;;
39066;SDS011;24821;51.988;6.020;2022-12-18T04:09:20;7.13;;;5.93;;
39066;SDS011;24821;51.988;6.020;2022-12-18T04:11:46;8.50;;;6.03;;
39066;SDS011;24821;51.988;6.020;2022-12-18T04:14:12;6.10;;;5.37;;
39066;SDS011;24821;51.988;6.020;2022-12-18T04:16:38;8.27;;;7.50;;
39066;SDS011;24821;51.988;6.020;2022-12-18T04:19:04;7.00;;;5.30;;
39066;SDS011;24821;51.988;6.020;2022-12-18T04:21:30;7.40;;;6.77;;
39066;SDS011;24821;51.988;6.020;2022-12-18T04:23:55;6.20;;;5.63;;
39066;SDS011;24821;51.988;6.020;2022-12-18T04:26:21;7.17;;;6.40;;
39066;SDS011;24821;51.988;6.020;2022-12-18T04:28:46;5.43;;;5.03;;
39066;SDS011;24821;51.988;6.020;2022-12-18T04:31:12;5.47;;;4.27;;
39066;SDS011;24821;51.988;6.020;2022-12-18T04:33:38;11.50;;;5.83;;
39066;SDS011;24821;51.988;6.020;2022-12-18T04:36:03;10.33;;;5.77;;
39066;SDS011;24821;51.988;6.020;2022-12-18T04:38:29;11.23;;;4.60;;
39066;SDS011;24821;51.988;6.020;2022-12-18T04:40:55;8.30;;;7.47;;
39066;SDS011;24821;51.988;6.020;2022-12-18T04:43:20;6.70;;;5.67;;
39066;SDS011;24821;51.988;6.020;2022-12-18T04:45:46;6.07;;;5.57;;
39066;SDS011;24821;51.988;6.020;2022-12-18T04:48:11;5.73;;;4.80;;
39066;SDS011;24821;51.988;6.020;2022-12-18T04:50:37;4.93;;;4.53;;
39066;SDS011;24821;51.988;6.020;2022-12-18T04:53:03;6.53;;;5.93;;
39066;SDS011;24821;51.988;6.020;2022-12-18T04:55:29;4.10;;;3.73;;
39066;SDS011;24821;51.988;6.020;2022-12-18T04:57:54;6.37;;;5.03;;
39066;SDS011;24821;51.988;6.020;2022-12-18T05:00:20;4.50;;;4.20;;
39066;SDS011;24821;51.988;6.020;2022-12-18T05:02:46;8.73;;;6.13;;
39066;SDS011;24821;51.988;6.020;2022-12-18T05:05:11;7.20;;;5.13;;
39066;SDS011;24821;51.988;6.020;2022-12-18T05:07:37;8.23;;;5.40;;
39066;SDS011;24821;51.988;6.020;2022-12-18T05:10:06;4.40;;;4.10;;
39066;SDS011;24821;51.988;6.020;2022-12-18T05:12:32;5.83;;;4.83;;
39066;SDS011;24821;51.988;6.020;2022-12-18T05:14:57;7.07;;;4.47;;
39066;SDS011;24821;51.988;6.020;2022-12-18T05:17:23;5.67;;;5.13;;
39066;SDS011;24821;51.988;6.020;2022-12-18T05:19:48;7.80;;;6.97;;
39066;SDS011;24821;51.988;6.020;2022-12-18T05:22:14;6.37;;;5.80;;
39066;SDS011;24821;51.988;6.020;2022-12-18T05:24:40;6.83;;;5.53;;
39066;SDS011;24821;51.988;6.020;2022-12-18T05:27:05;5.93;;;3.40;;
39066;SDS011;24821;51.988;6.020;2022-12-18T05:29:31;12.63;;;4.57;;
39066;SDS011;24821;51.988;6.020;2022-12-18T05:31:56;5.23;;;4.83;;
39066;SDS011;24821;51.988;6.020;2022-12-18T05:34:22;7.20;;;6.50;;
39066;SDS011;24821;51.988;6.020;2022-12-18T05:36:47;6.50;;;5.23;;
39066;SDS011;24821;51.988;6.020;2022-12-18T05:39:13;5.80;;;5.30;;
39066;SDS011;24821;51.988;6.020;2022-12-18T05:41:39;5.40;;;4.20;;
39066;SDS011;24821;51.988;6.020;2022-12-18T05:44:04;4.77;;;4.47;;
39066;SDS011;24821;51.988;6.020;2022-12-18T05:46:30;4.87;;;4.43;;
39066;SDS011;24821;51.988;6.020;2022-12-18T05:48:58;4.63;;;4.33;;
39066;SDS011;24821;51.988;6.020;2022-12-18T05:51:24;5.53;;;5.03;;
39066;SDS011;24821;51.988;6.020;2022-12-18T05:53:50;5.27;;;4.87;;
39066;SDS011;24821;51.988;6.020;2022-12-18T05:56:18;6.13;;;4.90;;
39066;SDS011;24821;51.988;6.020;2022-12-18T05:58:46;5.37;;;4.87;;
39066;SDS011;24821;51.988;6.020;2022-12-18T06:01:16;6.87;;;6.07;;
39066;SDS011;24821;51.988;6.020;2022-12-18T06:03:43;4.03;;;3.53;;
39066;SDS011;24821;51.988;6.020;2022-12-18T06:06:20;7.97;;;5.73;;
39066;SDS011;24821;51.988;6.020;2022-12-18T06:08:51;6.27;;;5.53;;
39066;SDS011;24821;51.988;6.020;2022-12-18T06:11:18;8.27;;;7.00;;
39066;SDS011;24821;51.988;6.020;2022-12-18T06:13:45;6.40;;;5.70;;
39066;SDS011;24821;51.988;6.020;2022-12-18T06:16:11;5.00;;;4.27;;
39066;SDS011;24821;51.988;6.020;2022-12-18T06:18:37;6.57;;;5.97;;
39066;SDS011;24821;51.988;6.020;2022-12-18T06:21:03;6.20;;;5.70;;
39066;SDS011;24821;51.988;6.020;2022-12-18T06:23:28;5.17;;;4.73;;
39066;SDS011;24821;51.988;6.020;2022-12-18T06:25:54;8.57;;;6.33;;
39066;SDS011;24821;51.988;6.020;2022-12-18T06:28:20;5.03;;;4.63;;
39066;SDS011;24821;51.988;6.020;2022-12-18T06:30:46;6.70;;;5.73;;
39066;SDS011;24821;51.988;6.020;2022-12-18T06:33:13;5.07;;;4.67;;
39066;SDS011;24821;51.988;6.020;2022-12-18T06:35:40;7.60;;;4.80;;
39066;SDS011;24821;51.988;6.020;2022-12-18T06:38:05;4.40;;;4.00;;
39066;SDS011;24821;51.988;6.020;2022-12-18T06:40:31;6.77;;;4.93;;
39066;SDS011;24821;51.988;6.020;2022-12-18T06:42:57;7.80;;;5.93;;
39066;SDS011;24821;51.988;6.020;2022-12-18T06:45:23;6.10;;;5.53;;
39066;SDS011;24821;51.988;6.020;2022-12-18T06:47:49;6.47;;;4.20;;
39066;SDS011;24821;51.988;6.020;2022-12-18T06:50:15;3.30;;;3.00;;
39066;SDS011;24821;51.988;6.020;2022-12-18T06:52:40;4.90;;;4.60;;
39066;SDS011;24821;51.988;6.020;2022-12-18T06:55:07;5.80;;;4.87;;
39066;SDS011;24821;51.988;6.020;2022-12-18T06:57:33;4.37;;;3.47;;
39066;SDS011;24821;51.988;6.020;2022-12-18T06:59:59;3.70;;;3.40;;
39066;SDS011;24821;51.988;6.020;2022-12-18T07:02:24;4.10;;;3.70;;
39066;SDS011;24821;51.988;6.020;2022-12-18T07:04:50;4.33;;;3.97;;
39066;SDS011;24821;51.988;6.020;2022-12-18T07:07:15;5.27;;;4.77;;
39066;SDS011;24821;51.988;6.020;2022-12-18T07:09:41;7.83;;;4.47;;
39066;SDS011;24821;51.988;6.020;2022-12-18T07:12:06;6.13;;;5.63;;
39066;SDS011;24821;51.988;6.020;2022-12-18T07:14:33;10.03;;;5.63;;
39066;SDS011;24821;51.988;6.020;2022-12-18T07:16:58;8.03;;;5.33;;
39066;SDS011;24821;51.988;6.020;2022-12-18T07:19:24;5.87;;;5.33;;
39066;SDS011;24821;51.988;6.020;2022-12-18T07:21:50;8.40;;;5.93;;
39066;SDS011;24821;51.988;6.020;2022-12-18T07:24:16;5.83;;;5.30;;
39066;SDS011;24821;51.988;6.020;2022-12-18T07:26:42;8.40;;;5.90;;
39066;SDS011;24821;51.988;6.020;2022-12-18T07:29:10;7.87;;;6.80;;
39066;SDS011;24821;51.988;6.020;2022-12-18T07:31:35;9.03;;;3.43;;
39066;SDS011;24821;51.988;6.020;2022-12-18T07:34:01;7.83;;;5.20;;
39066;SDS011;24821;51.988;6.020;2022-12-18T07:36:26;4.77;;;4.37;;
39066;SDS011;24821;51.988;6.020;2022-12-18T07:38:52;7.33;;;4.97;;
39066;SDS011;24821;51.988;6.020;2022-12-18T07:41:18;5.43;;;4.83;;
39066;SDS011;24821;51.988;6.020;2022-12-18T07:43:44;6.00;;;5.50;;
39066;SDS011;24821;51.988;6.020;2022-12-18T07:46:10;9.63;;;7.20;;
39066;SDS011;24821;51.988;6.020;2022-12-18T07:48:38;5.40;;;4.97;;
39066;SDS011;24821;51.988;6.020;2022-12-18T07:51:07;4.97;;;4.20;;
39066;SDS011;24821;51.988;6.020;2022-12-18T07:53:33;3.73;;;3.53;;
39066;SDS011;24821;51.988;6.020;2022-12-18T07:56:01;6.43;;;5.90;;
39066;SDS011;24821;51.988;6.020;2022-12-18T07:58:32;10.43;;;4.77;;
39066;SDS011;24821;51.988;6.020;2022-12-18T08:01:04;6.17;;;4.70;;
39066;SDS011;24821;51.988;6.020;2022-12-18T08:03:31;10.95;;;6.25;;
39066;SDS011;24821;51.988;6.020;2022-12-18T08:05:58;7.37;;;6.70;;
39066;SDS011;24821;51.988;6.020;2022-12-18T08:08:28;7.80;;;5.47;;
39066;SDS011;24821;51.988;6.020;2022-12-18T08:10:54;12.13;;;6.37;;
39066;SDS011;24821;51.988;6.020;2022-12-18T08:13:20;11.40;;;6.30;;
39066;SDS011;24821;51.988;6.020;2022-12-18T08:15:46;5.13;;;4.73;;
39066;SDS011;24821;51.988;6.020;2022-12-18T08:18:19;5.97;;;5.37;;
39066;SDS011;24821;51.988;6.020;2022-12-18T08:20:45;6.20;;;5.57;;
39066;SDS011;24821;51.988;6.020;2022-12-18T08:23:10;4.70;;;4.40;;
39066;SDS011;24821;51.988;6.020;2022-12-18T08:25:36;6.70;;;6.03;;
39066;SDS011;24821;51.988;6.020;2022-12-18T08:28:01;5.23;;;4.90;;
39066;SDS011;24821;51.988;6.020;2022-12-18T08:30:27;5.00;;;4.60;;
39066;SDS011;24821;51.988;6.020;2022-12-18T08:32:53;5.10;;;4.63;;
39066;SDS011;24821;51.988;6.020;2022-12-18T08:35:19;5.07;;;4.67;;
39066;SDS011;24821;51.988;6.020;2022-12-18T08:37:44;4.97;;;4.57;;
39066;SDS011;24821;51.988;6.020;2022-12-18T08:40:10;4.63;;;4.23;;
39066;SDS011;24821;51.988;6.020;2022-12-18T08:42:35;6.57;;;5.73;;
39066;SDS011;24821;51.988;6.020;2022-12-18T08:45:32;8.95;;;6.05;;
39066;SDS011;24821;51.988;6.020;2022-12-18T08:47:59;4.97;;;3.13;;
39066;SDS011;24821;51.988;6.020;2022-12-18T08:50:24;6.27;;;5.67;;
39066;SDS011;24821;51.988;6.020;2022-12-18T08:52:50;5.10;;;4.60;;
39066;SDS011;24821;51.988;6.020;2022-12-18T08:55:17;4.57;;;4.27;;
39066;SDS011;24821;51.988;6.020;2022-12-18T08:57:42;5.60;;;5.07;;
39066;SDS011;24821;51.988;6.020;2022-12-18T09:00:08;5.97;;;4.60;;
39066;SDS011;24821;51.988;6.020;2022-12-18T09:02:34;6.60;;;5.03;;
39066;SDS011;24821;51.988;6.020;2022-12-18T09:05:00;6.13;;;4.53;;
39066;SDS011;24821;51.988;6.020;2022-12-18T09:07:25;3.53;;;3.33;;
39066;SDS011;24821;51.988;6.020;2022-12-18T09:09:51;4.20;;;3.67;;
39066;SDS011;24821;51.988;6.020;2022-12-18T09:12:16;7.17;;;4.27;;
39066;SDS011;24821;51.988;6.020;2022-12-18T09:14:42;4.70;;;4.30;;
39066;SDS011;24821;51.988;6.020;2022-12-18T09:17:07;5.13;;;4.73;;
39066;SDS011;24821;51.988;6.020;2022-12-18T09:19:33;5.47;;;3.23;;
39066;SDS011;24821;51.988;6.020;2022-12-18T09:21:58;5.33;;;4.83;;
39066;SDS011;24821;51.988;6.020;2022-12-18T09:24:24;5.03;;;4.53;;
39066;SDS011;24821;51.988;6.020;2022-12-18T09:26:52;5.27;;;4.67;;
39066;SDS011;24821;51.988;6.020;2022-12-18T09:29:18;6.37;;;5.70;;
39066;SDS011;24821;51.988;6.020;2022-12-18T09:31:44;4.57;;;3.43;;
39066;SDS011;24821;51.988;6.020;2022-12-18T09:34:09;11.80;;;4.83;;
39066;SDS011;24821;51.988;6.020;2022-12-18T09:36:35;11.67;;;6.67;;
39066;SDS011;24821;51.988;6.020;2022-12-18T09:39:01;5.37;;;4.97;;
39066;SDS011;24821;51.988;6.020;2022-12-18T09:46:43;4.78;;;4.47;;
39066;SDS011;24821;51.988;6.020;2022-12-18T09:49:30;11.43;;;5.17;;
39066;SDS011;24821;51.988;6.020;2022-12-18T09:52:00;6.07;;;5.53;;
39066;SDS011;24821;51.988;6.020;2022-12-18T09:54:38;5.60;;;3.97;;
39066;SDS011;24821;51.988;6.020;2022-12-18T09:57:15;6.47;;;4.70;;
39066;SDS011;24821;51.988;6.020;2022-12-18T09:59:46;5.23;;;4.77;;
39066;SDS011;24821;51.988;6.020;2022-12-18T10:02:20;4.67;;;4.27;;
39066;SDS011;24821;51.988;6.020;2022-12-18T10:04:56;4.47;;;4.17;;
39066;SDS011;24821;51.988;6.020;2022-12-18T10:07:42;5.80;;;4.70;;
39066;SDS011;24821;51.988;6.020;2022-12-18T10:10:40;5.23;;;4.77;;
39066;SDS011;24821;51.988;6.020;2022-12-18T10:13:21;4.10;;;3.13;;
39066;SDS011;24821;51.988;6.020;2022-12-18T10:18:28;4.03;;;3.73;;
39066;SDS011;24821;51.988;6.020;2022-12-18T10:21:02;3.40;;;3.20;;
39066;SDS011;24821;51.988;6.020;2022-12-18T10:23:47;5.63;;;4.23;;
39066;SDS011;24821;51.988;6.020;2022-12-18T10:26:22;4.83;;;3.70;;
39066;SDS011;24821;51.988;6.020;2022-12-18T10:28:49;4.00;;;3.70;;
39066;SDS011;24821;51.988;6.020;2022-12-18T10:31:16;19.50;;;4.43;;
39066;SDS011;24821;51.988;6.020;2022-12-18T10:33:45;6.03;;;4.50;;
39066;SDS011;24821;51.988;6.020;2022-12-18T10:36:11;4.17;;;3.37;;
39066;SDS011;24821;51.988;6.020;2022-12-18T10:38:36;4.13;;;3.73;;
39066;SDS011;24821;51.988;6.020;2022-12-18T10:41:03;5.20;;;4.00;;
39066;SDS011;24821;51.988;6.020;2022-12-18T10:48:26;6.23;;;4.73;;
39066;SDS011;24821;51.988;6.020;2022-12-18T10:50:52;4.07;;;3.73;;
39066;SDS011;24821;51.988;6.020;2022-12-18T10:53:28;4.93;;;4.43;;
39066;SDS011;24821;51.988;6.020;2022-12-18T10:55:56;5.03;;;4.73;;
39066;SDS011;24821;51.988;6.020;2022-12-18T11:06:07;4.87;;;4.37;;
39066;SDS011;24821;51.988;6.020;2022-12-18T11:08:35;4.43;;;3.77;;
39066;SDS011;24821;51.988;6.020;2022-12-18T11:11:01;4.30;;;3.93;;
39066;SDS011;24821;51.988;6.020;2022-12-18T11:13:28;3.80;;;3.53;;
39066;SDS011;24821;51.988;6.020;2022-12-18T11:15:55;9.90;;;5.07;;
39066;SDS011;24821;51.988;6.020;2022-12-18T11:18:23;10.50;;;5.47;;
39066;SDS011;24821;51.988;6.020;2022-12-18T11:21:05;4.87;;;4.37;;
39066;SDS011;24821;51.988;6.020;2022-12-18T11:23:33;7.47;;;5.27;;
39066;SDS011;24821;51.988;6.020;2022-12-18T11:26:03;5.43;;;4.67;;
39066;SDS011;24821;51.988;6.020;2022-12-18T11:28:34;4.13;;;3.73;;
39066;SDS011;24821;51.988;6.020;2022-12-18T11:31:15;5.83;;;4.13;;
39066;SDS011;24821;51.988;6.020;2022-12-18T11:33:49;6.38;;;4.53;;
39066;SDS011;24821;51.988;6.020;2022-12-18T11:36:21;4.63;;;3.73;;
39066;SDS011;24821;51.988;6.020;2022-12-18T11:38:47;8.43;;;3.90;;
39066;SDS011;24821;51.988;6.020;2022-12-18T11:44:14;4.73;;;3.97;;
39066;SDS011;24821;51.988;6.020;2022-12-18T11:46:51;5.00;;;4.43;;
39066;SDS011;24821;51.988;6.020;2022-12-18T11:49:25;4.83;;;4.37;;
39066;SDS011;24821;51.988;6.020;2022-12-18T11:54:25;5.23;;;3.30;;
39066;SDS011;24821;51.988;6.020;2022-12-18T11:56:53;3.93;;;3.70;;
39066;SDS011;24821;51.988;6.020;2022-12-18T12:04:50;6.40;;;5.77;;
39066;SDS011;24821;51.988;6.020;2022-12-18T12:13:08;5.10;;;4.70;;
39066;SDS011;24821;51.988;6.020;2022-12-18T12:21:38;5.57;;;5.10;;
39066;SDS011;24821;51.988;6.020;2022-12-18T12:24:12;5.10;;;4.63;;
39066;SDS011;24821;51.988;6.020;2022-12-18T12:32:58;3.63;;;3.33;;
39066;SDS011;24821;51.988;6.020;2022-12-18T12:38:20;7.70;;;4.57;;
39066;SDS011;24821;51.988;6.020;2022-12-18T12:41:00;5.27;;;4.87;;
39066;SDS011;24821;51.988;6.020;2022-12-18T12:43:48;8.20;;;4.63;;
39066;SDS011;24821;51.988;6.020;2022-12-18T12:46:15;6.60;;;4.28;;
39066;SDS011;24821;51.988;6.020;2022-12-18T12:48:51;3.73;;;3.43;;
39066;SDS011;24821;51.988;6.020;2022-12-18T12:51:26;4.83;;;3.57;;
39066;SDS011;24821;51.988;6.020;2022-12-18T12:53:55;6.77;;;4.67;;
39066;SDS011;24821;51.988;6.020;2022-12-18T12:56:22;7.47;;;5.07;;
39066;SDS011;24821;51.988;6.020;2022-12-18T12:59:04;3.87;;;3.53;;
39066;SDS011;24821;51.988;6.020;2022-12-18T13:01:50;6.27;;;4.63;;
39066;SDS011;24821;51.988;6.020;2022-12-18T13:12:54;4.97;;;4.57;;
39066;SDS011;24821;51.988;6.020;2022-12-18T13:18:14;3.77;;;3.47;;
39066;SDS011;24821;51.988;6.020;2022-12-18T13:20:49;4.87;;;4.37;;
39066;SDS011;24821;51.988;6.020;2022-12-18T13:23:27;5.40;;;4.90;;
39066;SDS011;24821;51.988;6.020;2022-12-18T13:31:01;3.53;;;3.20;;
39066;SDS011;24821;51.988;6.020;2022-12-18T13:33:43;6.40;;;4.43;;
39066;SDS011;24821;51.988;6.020;2022-12-18T13:36:23;7.50;;;5.33;;
39066;SDS011;24821;51.988;6.020;2022-12-18T13:41:39;5.17;;;4.67;;
39066;SDS011;24821;51.988;6.020;2022-12-18T13:44:12;6.30;;;5.33;;
39066;SDS011;24821;51.988;6.020;2022-12-18T13:46:57;5.07;;;4.60;;
39066;SDS011;24821;51.988;6.020;2022-12-18T13:49:37;8.30;;;4.70;;
39066;SDS011;24821;51.988;6.020;2022-12-18T13:55:01;4.17;;;3.77;;
39066;SDS011;24821;51.988;6.020;2022-12-18T13:57:34;5.43;;;4.97;;
39066;SDS011;24821;51.988;6.020;2022-12-18T14:02:51;10.47;;;4.47;;
39066;SDS011;24821;51.988;6.020;2022-12-18T14:05:35;6.23;;;5.50;;
39066;SDS011;24821;51.988;6.020;2022-12-18T14:08:06;7.83;;;4.40;;
39066;SDS011;24821;51.988;6.020;2022-12-18T14:10:34;5.87;;;5.30;;
39066;SDS011;24821;51.988;6.020;2022-12-18T14:13:05;6.83;;;4.70;;
39066;SDS011;24821;51.988;6.020;2022-12-18T14:15:34;5.57;;;5.07;;
39066;SDS011;24821;51.988;6.020;2022-12-18T14:18:23;11.13;;;5.60;;
39066;SDS011;24821;51.988;6.020;2022-12-18T14:20:59;4.23;;;3.83;;
39066;SDS011;24821;51.988;6.020;2022-12-18T14:23:31;4.33;;;4.00;;
39066;SDS011;24821;51.988;6.020;2022-12-18T14:25:56;6.93;;;5.23;;
39066;SDS011;24821;51.988;6.020;2022-12-18T14:28:22;4.57;;;4.17;;
39066;SDS011;24821;51.988;6.020;2022-12-18T14:30:49;9.50;;;5.77;;
39066;SDS011;24821;51.988;6.020;2022-12-18T14:33:19;6.87;;;5.63;;
39066;SDS011;24821;51.988;6.020;2022-12-18T14:35:53;3.03;;;2.85;;
39066;SDS011;24821;51.988;6.020;2022-12-18T14:38:33;5.73;;;5.23;;
39066;SDS011;24821;51.988;6.020;2022-12-18T14:43:28;4.07;;;3.63;;
39066;SDS011;24821;51.988;6.020;2022-12-18T14:45:58;5.30;;;4.57;;
39066;SDS011;24821;51.988;6.020;2022-12-18T14:51:12;5.80;;;5.00;;
39066;SDS011;24821;51.988;6.020;2022-12-18T14:53:42;6.77;;;4.50;;
39066;SDS011;24821;51.988;6.020;2022-12-18T14:56:31;5.30;;;4.90;;
39066;SDS011;24821;51.988;6.020;2022-12-18T14:59:12;19.30;;;5.83;;
39066;SDS011;24821;51.988;6.020;2022-12-18T15:01:45;5.70;;;5.10;;
39066;SDS011;24821;51.988;6.020;2022-12-18T15:04:24;5.37;;;4.90;;
39066;SDS011;24821;51.988;6.020;2022-12-18T15:07:38;4.73;;;4.33;;
39066;SDS011;24821;51.988;6.020;2022-12-18T15:10:34;9.13;;;4.57;;
39066;SDS011;24821;51.988;6.020;2022-12-18T15:12:39;7.57;;;4.57;;
39066;SDS011;24821;51.988;6.020;2022-12-18T15:17:59;4.80;;;4.27;;
39066;SDS011;24821;51.988;6.020;2022-12-18T15:20:25;6.17;;;5.37;;
39066;SDS011;24821;51.988;6.020;2022-12-18T15:22:51;6.30;;;5.67;;
39066;SDS011;24821;51.988;6.020;2022-12-18T15:25:28;14.33;;;5.43;;
39066;SDS011;24821;51.988;6.020;2022-12-18T15:27:59;16.93;;;6.20;;
39066;SDS011;24821;51.988;6.020;2022-12-18T15:30:24;6.37;;;4.33;;
39066;SDS011;24821;51.988;6.020;2022-12-18T15:32:51;8.13;;;6.03;;
39066;SDS011;24821;51.988;6.020;2022-12-18T15:35:37;5.07;;;4.63;;
39066;SDS011;24821;51.988;6.020;2022-12-18T15:38:02;7.20;;;5.37;;
39066;SDS011;24821;51.988;6.020;2022-12-18T15:40:28;6.13;;;5.30;;
39066;SDS011;24821;51.988;6.020;2022-12-18T15:42:53;8.20;;;5.83;;
39066;SDS011;24821;51.988;6.020;2022-12-18T15:45:38;4.83;;;4.33;;
39066;SDS011;24821;51.988;6.020;2022-12-18T15:48:17;11.47;;;6.67;;
39066;SDS011;24821;51.988;6.020;2022-12-18T15:50:47;9.90;;;6.90;;
39066;SDS011;24821;51.988;6.020;2022-12-18T15:53:17;8.13;;;6.60;;
39066;SDS011;24821;51.988;6.020;2022-12-18T15:55:44;10.37;;;4.73;;
39066;SDS011;24821;51.988;6.020;2022-12-18T15:58:28;7.03;;;5.70;;
39066;SDS011;24821;51.988;6.020;2022-12-18T16:00:53;6.07;;;5.47;;
39066;SDS011;24821;51.988;6.020;2022-12-18T16:03:23;7.23;;;5.67;;
39066;SDS011;24821;51.988;6.020;2022-12-18T16:05:48;5.10;;;4.60;;
39066;SDS011;24821;51.988;6.020;2022-12-18T16:08:14;5.93;;;5.20;;
39066;SDS011;24821;51.988;6.020;2022-12-18T16:10:39;4.93;;;4.50;;
39066;SDS011;24821;51.988;6.020;2022-12-18T16:13:06;10.17;;;6.90;;
39066;SDS011;24821;51.988;6.020;2022-12-18T16:15:35;4.93;;;4.53;;
39066;SDS011;24821;51.988;6.020;2022-12-18T16:18:00;9.50;;;6.70;;
39066;SDS011;24821;51.988;6.020;2022-12-18T16:20:26;5.87;;;5.37;;
39066;SDS011;24821;51.988;6.020;2022-12-18T16:22:51;6.93;;;5.97;;
39066;SDS011;24821;51.988;6.020;2022-12-18T16:25:21;12.80;;;7.63;;
39066;SDS011;24821;51.988;6.020;2022-12-18T16:27:49;5.70;;;5.20;;
39066;SDS011;24821;51.988;6.020;2022-12-18T16:30:20;6.83;;;5.43;;
39066;SDS011;24821;51.988;6.020;2022-12-18T16:32:47;8.43;;;7.33;;
39066;SDS011;24821;51.988;6.020;2022-12-18T16:35:13;5.93;;;5.43;;
39066;SDS011;24821;51.988;6.020;2022-12-18T16:37:40;7.90;;;7.17;;
39066;SDS011;24821;51.988;6.020;2022-12-18T16:40:07;9.27;;;6.40;;
39066;SDS011;24821;51.988;6.020;2022-12-18T16:42:38;8.20;;;7.37;;
39066;SDS011;24821;51.988;6.020;2022-12-18T16:45:05;10.00;;;6.97;;
39066;SDS011;24821;51.988;6.020;2022-12-18T16:47:32;6.50;;;5.93;;
39066;SDS011;24821;51.988;6.020;2022-12-18T16:49:58;6.80;;;4.90;;
39066;SDS011;24821;51.988;6.020;2022-12-18T16:52:24;5.50;;;5.10;;